Etusivu
METAR-TAF:

METAR-TAF

Lentoasemat :

Calhoun, Georgia, Yhdysvallat

Leveyspiiri: 34-27-20N, Pituuspiiri: 084-56-21W, korkeus merenpinnasta: 198 m

Tämänhetkinen sää

Tämä raportti tehtiin 31 minuuttia sitten, kello 00.15 UTC
tyyntä
Lämpötila 4°C
Kosteus 100%
Ilmanpaine 1027 hPa
Näkyvyys: 6.4 km
Hajanaisia pilviä 2100 ft:n korkeudessa
Hajonneita pilviä 2900 ft:n korkeudessa
Pilvistä 5500 ft:n korkeudessa
sadetta

METAR: KCZL 200015Z AUTO 00000KT 4SM RA SCT021 BKN029 OVC055 04/04 A3032 RMK AO2

Aika: 19:46 (00:46 UTC)


TAF: puuttuu

Säähavainnot ja -ennusteet yli 4000 lentoasemalta (METAR- ja TAF-raportit).

Käytössä olevat sääasemat on merkitty karttaan keltaisilla ja punaisilla pisteillä.

Aseta hiiri pisteen päälle nähdäksesi sääaseman nimen.

Klikkaa sitten nähdäksesi säähavainnot ja -ennusteet.

Kartan vaihtaminen: klikkaa mustalla rastilla varustettuja vihreitä pisteitä, niin voit zoomata sisään; viivalla varustettua vihreää pistettä, niin voit zoomata ulos tai vihreitä nuolia, niin pääset viereisille kartoille.


METAR-TAF: